sensor_id;sensor_type;location;lat;lon;timestamp;P1;durP1;ratioP1;P2;durP2;ratioP2
10677;SDS011;5387;48.722;9.110;2023-08-24T00:01:45;3.47;;;3.17;;
10677;SDS011;5387;48.722;9.110;2023-08-24T00:04:11;7.63;;;3.75;;
10677;SDS011;5387;48.722;9.110;2023-08-24T00:06:38;5.05;;;3.22;;
10677;SDS011;5387;48.722;9.110;2023-08-24T00:09:05;4.95;;;3.42;;
10677;SDS011;5387;48.722;9.110;2023-08-24T00:11:33;4.47;;;3.78;;
10677;SDS011;5387;48.722;9.110;2023-08-24T00:14:00;5.43;;;3.90;;
10677;SDS011;5387;48.722;9.110;2023-08-24T00:16:28;4.15;;;3.80;;
10677;SDS011;5387;48.722;9.110;2023-08-24T00:18:55;4.05;;;3.65;;
10677;SDS011;5387;48.722;9.110;2023-08-24T00:21:22;5.90;;;3.45;;
10677;SDS011;5387;48.722;9.110;2023-08-24T00:23:49;4.20;;;3.50;;
10677;SDS011;5387;48.722;9.110;2023-08-24T00:26:16;5.00;;;3.92;;
10677;SDS011;5387;48.722;9.110;2023-08-24T00:28:43;4.40;;;3.78;;
10677;SDS011;5387;48.722;9.110;2023-08-24T00:31:10;6.05;;;4.10;;
10677;SDS011;5387;48.722;9.110;2023-08-24T00:33:39;5.47;;;3.88;;
10677;SDS011;5387;48.722;9.110;2023-08-24T00:36:06;4.32;;;3.75;;
10677;SDS011;5387;48.722;9.110;2023-08-24T00:38:33;5.07;;;3.65;;
10677;SDS011;5387;48.722;9.110;2023-08-24T00:41:00;5.22;;;3.67;;
10677;SDS011;5387;48.722;9.110;2023-08-24T00:43:27;5.25;;;3.78;;
10677;SDS011;5387;48.722;9.110;2023-08-24T00:45:55;4.47;;;3.88;;
10677;SDS011;5387;48.722;9.110;2023-08-24T00:48:25;6.07;;;3.80;;
10677;SDS011;5387;48.722;9.110;2023-08-24T00:50:55;5.25;;;4.43;;
10677;SDS011;5387;48.722;9.110;2023-08-24T00:53:22;4.93;;;4.00;;
10677;SDS011;5387;48.722;9.110;2023-08-24T00:55:52;4.93;;;3.90;;
10677;SDS011;5387;48.722;9.110;2023-08-24T00:58:19;4.65;;;3.65;;
10677;SDS011;5387;48.722;9.110;2023-08-24T01:00:46;5.15;;;3.45;;
10677;SDS011;5387;48.722;9.110;2023-08-24T01:03:13;4.25;;;3.85;;
10677;SDS011;5387;48.722;9.110;2023-08-24T01:05:40;7.47;;;3.97;;
10677;SDS011;5387;48.722;9.110;2023-08-24T01:08:09;5.68;;;4.13;;
10677;SDS011;5387;48.722;9.110;2023-08-24T01:10:37;4.20;;;3.80;;
10677;SDS011;5387;48.722;9.110;2023-08-24T01:13:08;4.03;;;3.50;;
10677;SDS011;5387;48.722;9.110;2023-08-24T01:15:37;5.28;;;4.18;;
10677;SDS011;5387;48.722;9.110;2023-08-24T01:18:08;6.15;;;4.47;;
10677;SDS011;5387;48.722;9.110;2023-08-24T01:20:38;5.32;;;4.43;;
10677;SDS011;5387;48.722;9.110;2023-08-24T01:23:08;6.38;;;4.32;;
10677;SDS011;5387;48.722;9.110;2023-08-24T01:25:51;10.20;;;3.90;;
10677;SDS011;5387;48.722;9.110;2023-08-24T01:28:20;6.47;;;4.32;;
10677;SDS011;5387;48.722;9.110;2023-08-24T01:30:48;4.45;;;4.05;;
10677;SDS011;5387;48.722;9.110;2023-08-24T01:33:15;7.45;;;4.50;;
10677;SDS011;5387;48.722;9.110;2023-08-24T01:35:42;6.40;;;4.03;;
10677;SDS011;5387;48.722;9.110;2023-08-24T01:38:09;5.15;;;4.25;;
10677;SDS011;5387;48.722;9.110;2023-08-24T01:40:39;9.32;;;4.40;;
10677;SDS011;5387;48.722;9.110;2023-08-24T01:43:12;5.35;;;3.80;;
10677;SDS011;5387;48.722;9.110;2023-08-24T01:45:41;7.05;;;4.40;;
10677;SDS011;5387;48.722;9.110;2023-08-24T01:48:09;4.57;;;3.88;;
10677;SDS011;5387;48.722;9.110;2023-08-24T01:50:37;7.63;;;4.65;;
10677;SDS011;5387;48.722;9.110;2023-08-24T01:53:04;5.60;;;4.35;;
10677;SDS011;5387;48.722;9.110;2023-08-24T01:55:31;5.65;;;3.95;;
10677;SDS011;5387;48.722;9.110;2023-08-24T01:57:58;5.32;;;3.92;;
10677;SDS011;5387;48.722;9.110;2023-08-24T02:00:26;6.57;;;4.38;;
10677;SDS011;5387;48.722;9.110;2023-08-24T02:02:54;4.93;;;4.43;;
10677;SDS011;5387;48.722;9.110;2023-08-24T02:05:21;7.15;;;3.95;;
10677;SDS011;5387;48.722;9.110;2023-08-24T02:07:52;7.35;;;4.22;;
10677;SDS011;5387;48.722;9.110;2023-08-24T02:10:19;4.53;;;4.13;;
10677;SDS011;5387;48.722;9.110;2023-08-24T02:12:46;5.07;;;4.03;;
10677;SDS011;5387;48.722;9.110;2023-08-24T02:15:12;7.38;;;4.50;;
10677;SDS011;5387;48.722;9.110;2023-08-24T02:17:39;6.15;;;4.05;;
10677;SDS011;5387;48.722;9.110;2023-08-24T02:20:08;7.15;;;4.32;;
10677;SDS011;5387;48.722;9.110;2023-08-24T02:22:36;5.00;;;4.43;;
10677;SDS011;5387;48.722;9.110;2023-08-24T02:25:03;6.25;;;4.50;;
10677;SDS011;5387;48.722;9.110;2023-08-24T02:27:31;7.78;;;4.13;;
10677;SDS011;5387;48.722;9.110;2023-08-24T02:29:57;6.60;;;4.50;;
10677;SDS011;5387;48.722;9.110;2023-08-24T02:32:25;7.88;;;4.63;;
10677;SDS011;5387;48.722;9.110;2023-08-24T02:34:52;5.75;;;4.07;;
10677;SDS011;5387;48.722;9.110;2023-08-24T02:37:20;6.15;;;4.63;;
10677;SDS011;5387;48.722;9.110;2023-08-24T02:39:47;4.78;;;4.28;;
10677;SDS011;5387;48.722;9.110;2023-08-24T02:42:14;5.03;;;4.32;;
10677;SDS011;5387;48.722;9.110;2023-08-24T02:44:41;7.18;;;4.38;;
10677;SDS011;5387;48.722;9.110;2023-08-24T02:47:07;5.18;;;4.68;;
10677;SDS011;5387;48.722;9.110;2023-08-24T02:49:34;5.85;;;4.72;;
10677;SDS011;5387;48.722;9.110;2023-08-24T02:52:01;5.55;;;4.50;;
10677;SDS011;5387;48.722;9.110;2023-08-24T02:54:29;5.55;;;3.97;;
10677;SDS011;5387;48.722;9.110;2023-08-24T02:56:56;8.75;;;4.78;;
10677;SDS011;5387;48.722;9.110;2023-08-24T02:59:22;4.93;;;4.32;;
10677;SDS011;5387;48.722;9.110;2023-08-24T03:01:49;6.63;;;5.03;;
10677;SDS011;5387;48.722;9.110;2023-08-24T03:04:16;13.48;;;4.78;;
10677;SDS011;5387;48.722;9.110;2023-08-24T03:06:43;5.15;;;4.65;;
10677;SDS011;5387;48.722;9.110;2023-08-24T03:09:10;6.50;;;4.70;;
10677;SDS011;5387;48.722;9.110;2023-08-24T03:11:38;5.65;;;4.47;;
10677;SDS011;5387;48.722;9.110;2023-08-24T03:14:05;5.03;;;4.45;;
10677;SDS011;5387;48.722;9.110;2023-08-24T03:16:32;8.40;;;4.63;;
10677;SDS011;5387;48.722;9.110;2023-08-24T03:18:59;7.25;;;4.53;;
10677;SDS011;5387;48.722;9.110;2023-08-24T03:21:26;4.85;;;4.00;;
10677;SDS011;5387;48.722;9.110;2023-08-24T03:23:53;5.57;;;4.53;;
10677;SDS011;5387;48.722;9.110;2023-08-24T03:26:20;5.15;;;4.47;;
10677;SDS011;5387;48.722;9.110;2023-08-24T03:28:49;6.80;;;4.80;;
10677;SDS011;5387;48.722;9.110;2023-08-24T03:31:16;4.15;;;3.75;;
10677;SDS011;5387;48.722;9.110;2023-08-24T03:33:43;4.57;;;4.18;;
10677;SDS011;5387;48.722;9.110;2023-08-24T03:36:11;5.95;;;4.55;;
10677;SDS011;5387;48.722;9.110;2023-08-24T03:38:38;7.32;;;3.95;;
10677;SDS011;5387;48.722;9.110;2023-08-24T03:41:05;4.55;;;4.15;;
10677;SDS011;5387;48.722;9.110;2023-08-24T03:43:32;5.10;;;4.20;;
10677;SDS011;5387;48.722;9.110;2023-08-24T03:46:01;5.97;;;4.22;;
10677;SDS011;5387;48.722;9.110;2023-08-24T03:48:29;10.52;;;4.45;;
10677;SDS011;5387;48.722;9.110;2023-08-24T03:50:56;7.55;;;4.35;;
10677;SDS011;5387;48.722;9.110;2023-08-24T03:53:23;5.25;;;4.30;;
10677;SDS011;5387;48.722;9.110;2023-08-24T03:55:50;5.70;;;4.30;;
10677;SDS011;5387;48.722;9.110;2023-08-24T03:58:18;5.13;;;4.45;;
10677;SDS011;5387;48.722;9.110;2023-08-24T04:00:45;5.00;;;4.47;;
10677;SDS011;5387;48.722;9.110;2023-08-24T04:03:13;4.85;;;4.05;;
10677;SDS011;5387;48.722;9.110;2023-08-24T04:05:40;4.43;;;3.85;;
10677;SDS011;5387;48.722;9.110;2023-08-24T04:08:07;6.28;;;4.60;;
10677;SDS011;5387;48.722;9.110;2023-08-24T04:10:33;5.57;;;4.88;;
10677;SDS011;5387;48.722;9.110;2023-08-24T04:13:00;4.43;;;4.05;;
10677;SDS011;5387;48.722;9.110;2023-08-24T04:15:27;8.13;;;4.68;;
10677;SDS011;5387;48.722;9.110;2023-08-24T04:17:54;4.97;;;4.45;;
10677;SDS011;5387;48.722;9.110;2023-08-24T04:20:23;5.57;;;5.03;;
10677;SDS011;5387;48.722;9.110;2023-08-24T04:22:50;5.93;;;4.70;;
10677;SDS011;5387;48.722;9.110;2023-08-24T04:25:16;7.88;;;4.75;;
10677;SDS011;5387;48.722;9.110;2023-08-24T04:27:43;6.80;;;4.68;;
10677;SDS011;5387;48.722;9.110;2023-08-24T04:30:10;5.05;;;4.53;;
10677;SDS011;5387;48.722;9.110;2023-08-24T04:32:38;7.07;;;4.45;;
10677;SDS011;5387;48.722;9.110;2023-08-24T04:35:06;7.43;;;5.25;;
10677;SDS011;5387;48.722;9.110;2023-08-24T04:37:35;5.50;;;4.88;;
10677;SDS011;5387;48.722;9.110;2023-08-24T04:40:02;5.95;;;4.28;;
10677;SDS011;5387;48.722;9.110;2023-08-24T04:42:32;5.03;;;4.53;;
10677;SDS011;5387;48.722;9.110;2023-08-24T04:44:59;5.95;;;4.05;;
10677;SDS011;5387;48.722;9.110;2023-08-24T04:47:25;5.35;;;4.60;;
10677;SDS011;5387;48.722;9.110;2023-08-24T04:49:52;6.55;;;5.00;;
10677;SDS011;5387;48.722;9.110;2023-08-24T04:52:19;6.68;;;4.70;;
10677;SDS011;5387;48.722;9.110;2023-08-24T04:54:48;5.82;;;4.60;;
10677;SDS011;5387;48.722;9.110;2023-08-24T04:57:15;7.95;;;5.13;;
10677;SDS011;5387;48.722;9.110;2023-08-24T04:59:43;4.70;;;4.13;;
10677;SDS011;5387;48.722;9.110;2023-08-24T05:02:10;5.63;;;4.25;;
10677;SDS011;5387;48.722;9.110;2023-08-24T05:04:37;6.07;;;5.05;;
10677;SDS011;5387;48.722;9.110;2023-08-24T05:07:03;9.18;;;5.05;;
10677;SDS011;5387;48.722;9.110;2023-08-24T05:09:30;6.00;;;4.53;;
10677;SDS011;5387;48.722;9.110;2023-08-24T05:11:58;5.20;;;4.70;;
10677;SDS011;5387;48.722;9.110;2023-08-24T05:14:25;5.13;;;4.63;;
10677;SDS011;5387;48.722;9.110;2023-08-24T05:16:52;5.57;;;4.70;;
10677;SDS011;5387;48.722;9.110;2023-08-24T05:19:18;5.72;;;5.07;;
10677;SDS011;5387;48.722;9.110;2023-08-24T05:21:45;6.43;;;4.85;;
10677;SDS011;5387;48.722;9.110;2023-08-24T05:24:12;4.68;;;4.28;;
10677;SDS011;5387;48.722;9.110;2023-08-24T05:26:39;9.82;;;5.40;;
10677;SDS011;5387;48.722;9.110;2023-08-24T05:29:07;10.15;;;4.97;;
10677;SDS011;5387;48.722;9.110;2023-08-24T05:31:34;4.88;;;4.47;;
10677;SDS011;5387;48.722;9.110;2023-08-24T05:34:00;6.85;;;5.03;;
10677;SDS011;5387;48.722;9.110;2023-08-24T05:36:27;5.97;;;4.95;;
10677;SDS011;5387;48.722;9.110;2023-08-24T05:38:54;5.47;;;4.70;;
10677;SDS011;5387;48.722;9.110;2023-08-24T05:41:21;5.93;;;4.68;;
10677;SDS011;5387;48.722;9.110;2023-08-24T05:43:48;5.15;;;4.65;;
10677;SDS011;5387;48.722;9.110;2023-08-24T05:46:19;5.05;;;4.55;;
10677;SDS011;5387;48.722;9.110;2023-08-24T05:48:45;5.53;;;4.47;;
10677;SDS011;5387;48.722;9.110;2023-08-24T05:51:12;8.60;;;4.72;;
10677;SDS011;5387;48.722;9.110;2023-08-24T05:53:39;7.45;;;4.90;;
10677;SDS011;5387;48.722;9.110;2023-08-24T05:56:06;5.53;;;4.63;;
10677;SDS011;5387;48.722;9.110;2023-08-24T05:58:33;10.73;;;5.43;;
10677;SDS011;5387;48.722;9.110;2023-08-24T06:01:00;6.22;;;4.70;;
10677;SDS011;5387;48.722;9.110;2023-08-24T06:03:28;6.43;;;4.47;;
10677;SDS011;5387;48.722;9.110;2023-08-24T06:06:00;4.25;;;3.85;;
10677;SDS011;5387;48.722;9.110;2023-08-24T06:08:27;6.10;;;4.20;;
10677;SDS011;5387;48.722;9.110;2023-08-24T06:10:54;8.15;;;5.03;;
10677;SDS011;5387;48.722;9.110;2023-08-24T06:13:22;4.88;;;4.32;;
10677;SDS011;5387;48.722;9.110;2023-08-24T06:15:48;4.68;;;4.28;;
10677;SDS011;5387;48.722;9.110;2023-08-24T06:18:15;5.03;;;4.07;;
10677;SDS011;5387;48.722;9.110;2023-08-24T06:20:43;4.32;;;3.88;;
10677;SDS011;5387;48.722;9.110;2023-08-24T06:23:10;4.85;;;4.38;;
10677;SDS011;5387;48.722;9.110;2023-08-24T06:25:38;7.82;;;4.75;;
10677;SDS011;5387;48.722;9.110;2023-08-24T06:28:05;8.43;;;4.70;;
10677;SDS011;5387;48.722;9.110;2023-08-24T06:30:32;7.88;;;4.28;;
10677;SDS011;5387;48.722;9.110;2023-08-24T06:33:02;5.32;;;4.70;;
10677;SDS011;5387;48.722;9.110;2023-08-24T06:35:29;4.80;;;4.32;;
10677;SDS011;5387;48.722;9.110;2023-08-24T06:37:57;8.93;;;4.25;;
10677;SDS011;5387;48.722;9.110;2023-08-24T06:40:24;7.03;;;4.90;;
10677;SDS011;5387;48.722;9.110;2023-08-24T06:42:51;5.22;;;4.72;;
10677;SDS011;5387;48.722;9.110;2023-08-24T06:45:18;5.00;;;4.50;;
10677;SDS011;5387;48.722;9.110;2023-08-24T06:47:45;7.47;;;5.28;;
10677;SDS011;5387;48.722;9.110;2023-08-24T06:50:12;12.85;;;5.13;;
10677;SDS011;5387;48.722;9.110;2023-08-24T06:52:40;6.85;;;4.35;;
10677;SDS011;5387;48.722;9.110;2023-08-24T06:55:09;6.30;;;4.65;;
10677;SDS011;5387;48.722;9.110;2023-08-24T06:57:37;7.70;;;4.68;;
10677;SDS011;5387;48.722;9.110;2023-08-24T07:00:04;7.38;;;4.32;;
10677;SDS011;5387;48.722;9.110;2023-08-24T07:02:33;4.63;;;4.20;;
10677;SDS011;5387;48.722;9.110;2023-08-24T07:05:00;5.40;;;4.28;;
10677;SDS011;5387;48.722;9.110;2023-08-24T07:07:29;6.43;;;4.10;;
10677;SDS011;5387;48.722;9.110;2023-08-24T07:09:56;3.88;;;3.47;;
10677;SDS011;5387;48.722;9.110;2023-08-24T07:12:24;5.68;;;4.20;;
10677;SDS011;5387;48.722;9.110;2023-08-24T07:14:51;5.03;;;4.10;;
10677;SDS011;5387;48.722;9.110;2023-08-24T07:17:18;7.30;;;3.70;;
10677;SDS011;5387;48.722;9.110;2023-08-24T07:19:45;6.63;;;3.90;;
10677;SDS011;5387;48.722;9.110;2023-08-24T07:22:13;7.25;;;3.75;;
10677;SDS011;5387;48.722;9.110;2023-08-24T07:24:40;4.82;;;3.80;;
10677;SDS011;5387;48.722;9.110;2023-08-24T07:27:07;6.55;;;3.58;;
10677;SDS011;5387;48.722;9.110;2023-08-24T07:29:35;4.82;;;3.50;;
10677;SDS011;5387;48.722;9.110;2023-08-24T07:32:02;3.70;;;3.33;;
10677;SDS011;5387;48.722;9.110;2023-08-24T07:34:29;3.40;;;3.13;;
10677;SDS011;5387;48.722;9.110;2023-08-24T07:36:56;5.47;;;3.42;;
10677;SDS011;5387;48.722;9.110;2023-08-24T07:39:23;3.67;;;3.33;;
10677;SDS011;5387;48.722;9.110;2023-08-24T07:41:49;10.05;;;4.07;;
10677;SDS011;5387;48.722;9.110;2023-08-24T07:44:16;3.35;;;2.95;;
10677;SDS011;5387;48.722;9.110;2023-08-24T07:46:44;5.40;;;3.42;;
10677;SDS011;5387;48.722;9.110;2023-08-24T07:49:12;5.00;;;3.45;;
10677;SDS011;5387;48.722;9.110;2023-08-24T07:51:39;3.58;;;3.28;;
10677;SDS011;5387;48.722;9.110;2023-08-24T07:54:07;6.68;;;3.97;;
10677;SDS011;5387;48.722;9.110;2023-08-24T07:56:34;4.88;;;4.13;;
10677;SDS011;5387;48.722;9.110;2023-08-24T07:59:01;4.30;;;3.53;;
10677;SDS011;5387;48.722;9.110;2023-08-24T08:01:28;3.38;;;3.08;;
10677;SDS011;5387;48.722;9.110;2023-08-24T08:03:56;4.45;;;3.10;;
10677;SDS011;5387;48.722;9.110;2023-08-24T08:06:23;4.88;;;3.63;;
10677;SDS011;5387;48.722;9.110;2023-08-24T08:08:51;8.50;;;3.33;;
10677;SDS011;5387;48.722;9.110;2023-08-24T08:11:19;3.47;;;3.17;;
10677;SDS011;5387;48.722;9.110;2023-08-24T08:13:46;4.38;;;3.53;;
10677;SDS011;5387;48.722;9.110;2023-08-24T08:16:13;6.53;;;3.50;;
10677;SDS011;5387;48.722;9.110;2023-08-24T08:18:40;5.65;;;3.75;;
10677;SDS011;5387;48.722;9.110;2023-08-24T08:21:14;6.32;;;4.13;;
10677;SDS011;5387;48.722;9.110;2023-08-24T08:23:42;5.32;;;3.25;;
10677;SDS011;5387;48.722;9.110;2023-08-24T08:26:10;6.53;;;3.83;;
10677;SDS011;5387;48.722;9.110;2023-08-24T08:28:38;4.47;;;3.65;;
10677;SDS011;5387;48.722;9.110;2023-08-24T08:31:05;5.28;;;3.92;;
10677;SDS011;5387;48.722;9.110;2023-08-24T08:33:32;3.95;;;3.55;;
10677;SDS011;5387;48.722;9.110;2023-08-24T08:35:59;4.10;;;3.47;;
10677;SDS011;5387;48.722;9.110;2023-08-24T08:38:27;4.22;;;3.45;;
10677;SDS011;5387;48.722;9.110;2023-08-24T08:40:55;6.30;;;3.60;;
10677;SDS011;5387;48.722;9.110;2023-08-24T08:43:23;6.13;;;3.70;;
10677;SDS011;5387;48.722;9.110;2023-08-24T08:45:50;5.80;;;3.72;;
10677;SDS011;5387;48.722;9.110;2023-08-24T08:48:19;9.38;;;3.58;;
10677;SDS011;5387;48.722;9.110;2023-08-24T08:50:47;4.40;;;4.00;;
10677;SDS011;5387;48.722;9.110;2023-08-24T08:53:15;5.95;;;3.65;;
10677;SDS011;5387;48.722;9.110;2023-08-24T08:55:43;4.10;;;3.70;;
10677;SDS011;5387;48.722;9.110;2023-08-24T08:58:11;6.13;;;3.97;;
10677;SDS011;5387;48.722;9.110;2023-08-24T09:00:39;8.98;;;3.83;;
10677;SDS011;5387;48.722;9.110;2023-08-24T09:03:06;6.55;;;3.97;;
10677;SDS011;5387;48.722;9.110;2023-08-24T09:05:34;9.55;;;4.25;;
10677;SDS011;5387;48.722;9.110;2023-08-24T09:08:03;5.10;;;3.83;;
10677;SDS011;5387;48.722;9.110;2023-08-24T09:10:31;5.45;;;4.63;;
10677;SDS011;5387;48.722;9.110;2023-08-24T09:12:59;5.10;;;3.50;;
10677;SDS011;5387;48.722;9.110;2023-08-24T09:15:26;8.50;;;3.97;;
10677;SDS011;5387;48.722;9.110;2023-08-24T09:17:53;5.10;;;4.00;;
10677;SDS011;5387;48.722;9.110;2023-08-24T09:20:21;6.45;;;4.22;;
10677;SDS011;5387;48.722;9.110;2023-08-24T09:22:48;5.43;;;3.67;;
10677;SDS011;5387;48.722;9.110;2023-08-24T09:25:16;5.65;;;3.75;;
10677;SDS011;5387;48.722;9.110;2023-08-24T09:27:43;5.40;;;3.60;;
10677;SDS011;5387;48.722;9.110;2023-08-24T09:30:11;4.88;;;3.95;;
10677;SDS011;5387;48.722;9.110;2023-08-24T09:32:39;6.78;;;4.30;;
10677;SDS011;5387;48.722;9.110;2023-08-24T09:35:08;6.40;;;3.97;;
10677;SDS011;5387;48.722;9.110;2023-08-24T09:37:35;4.25;;;3.85;;
10677;SDS011;5387;48.722;9.110;2023-08-24T09:40:04;3.47;;;3.17;;
10677;SDS011;5387;48.722;9.110;2023-08-24T09:42:37;6.40;;;3.90;;
10677;SDS011;5387;48.722;9.110;2023-08-24T09:45:05;4.22;;;3.85;;
10677;SDS011;5387;48.722;9.110;2023-08-24T09:47:36;8.77;;;3.97;;
10677;SDS011;5387;48.722;9.110;2023-08-24T09:50:03;4.45;;;3.78;;
10677;SDS011;5387;48.722;9.110;2023-08-24T09:52:31;4.97;;;4.00;;
10677;SDS011;5387;48.722;9.110;2023-08-24T09:55:00;6.97;;;3.53;;
10677;SDS011;5387;48.722;9.110;2023-08-24T09:57:31;11.05;;;3.22;;
10677;SDS011;5387;48.722;9.110;2023-08-24T10:00:04;7.97;;;3.65;;
10677;SDS011;5387;48.722;9.110;2023-08-24T10:02:37;5.25;;;3.70;;
10677;SDS011;5387;48.722;9.110;2023-08-24T10:05:07;7.97;;;3.63;;
10677;SDS011;5387;48.722;9.110;2023-08-24T10:07:36;4.80;;;3.40;;
10677;SDS011;5387;48.722;9.110;2023-08-24T10:10:03;4.93;;;3.53;;
10677;SDS011;5387;48.722;9.110;2023-08-24T10:12:36;4.03;;;3.05;;
10677;SDS011;5387;48.722;9.110;2023-08-24T10:15:13;7.55;;;3.33;;
10677;SDS011;5387;48.722;9.110;2023-08-24T10:17:42;3.72;;;3.42;;
10677;SDS011;5387;48.722;9.110;2023-08-24T10:20:10;4.03;;;3.15;;
10677;SDS011;5387;48.722;9.110;2023-08-24T10:22:37;6.15;;;3.50;;
10677;SDS011;5387;48.722;9.110;2023-08-24T10:25:07;3.40;;;3.10;;
10677;SDS011;5387;48.722;9.110;2023-08-24T10:27:34;4.00;;;3.42;;
10677;SDS011;5387;48.722;9.110;2023-08-24T10:30:01;6.05;;;3.67;;
10677;SDS011;5387;48.722;9.110;2023-08-24T10:32:28;5.45;;;3.95;;
10677;SDS011;5387;48.722;9.110;2023-08-24T10:34:58;7.32;;;3.28;;
10677;SDS011;5387;48.722;9.110;2023-08-24T10:37:26;8.02;;;3.55;;
10677;SDS011;5387;48.722;9.110;2023-08-24T10:39:53;7.65;;;4.22;;
10677;SDS011;5387;48.722;9.110;2023-08-24T10:42:20;3.90;;;3.42;;
10677;SDS011;5387;48.722;9.110;2023-08-24T10:44:47;4.50;;;3.85;;
10677;SDS011;5387;48.722;9.110;2023-08-24T10:47:15;7.18;;;3.78;;
10677;SDS011;5387;48.722;9.110;2023-08-24T10:49:45;4.40;;;4.00;;
10677;SDS011;5387;48.722;9.110;2023-08-24T10:52:26;3.85;;;3.50;;
10677;SDS011;5387;48.722;9.110;2023-08-24T10:54:57;4.20;;;3.80;;
10677;SDS011;5387;48.722;9.110;2023-08-24T10:57:35;4.25;;;3.72;;
10677;SDS011;5387;48.722;9.110;2023-08-24T11:00:04;7.25;;;4.43;;
10677;SDS011;5387;48.722;9.110;2023-08-24T11:02:40;6.28;;;3.90;;
10677;SDS011;5387;48.722;9.110;2023-08-24T11:05:20;4.03;;;3.67;;
10677;SDS011;5387;48.722;9.110;2023-08-24T11:07:48;3.95;;;3.65;;
10677;SDS011;5387;48.722;9.110;2023-08-24T11:10:16;4.00;;;3.63;;
10677;SDS011;5387;48.722;9.110;2023-08-24T11:15:33;4.00;;;3.70;;
10677;SDS011;5387;48.722;9.110;2023-08-24T11:18:12;4.30;;;3.80;;
10677;SDS011;5387;48.722;9.110;2023-08-24T11:20:43;10.57;;;3.88;;
10677;SDS011;5387;48.722;9.110;2023-08-24T11:23:10;5.80;;;3.72;;
10677;SDS011;5387;48.722;9.110;2023-08-24T11:25:38;6.28;;;4.07;;
10677;SDS011;5387;48.722;9.110;2023-08-24T11:28:05;5.38;;;4.35;;
10677;SDS011;5387;48.722;9.110;2023-08-24T11:30:33;5.82;;;3.97;;
10677;SDS011;5387;48.722;9.110;2023-08-24T11:33:01;3.88;;;3.40;;
10677;SDS011;5387;48.722;9.110;2023-08-24T11:35:28;4.20;;;3.80;;
10677;SDS011;5387;48.722;9.110;2023-08-24T11:37:56;7.10;;;4.25;;
10677;SDS011;5387;48.722;9.110;2023-08-24T11:40:23;5.72;;;3.88;;
10677;SDS011;5387;48.722;9.110;2023-08-24T11:42:53;4.28;;;3.88;;
10677;SDS011;5387;48.722;9.110;2023-08-24T11:45:20;5.30;;;3.88;;
10677;SDS011;5387;48.722;9.110;2023-08-24T11:47:47;4.13;;;3.53;;
10677;SDS011;5387;48.722;9.110;2023-08-24T11:50:16;5.85;;;4.13;;
10677;SDS011;5387;48.722;9.110;2023-08-24T11:52:43;5.15;;;4.10;;
10677;SDS011;5387;48.722;9.110;2023-08-24T11:55:11;8.32;;;3.78;;
10677;SDS011;5387;48.722;9.110;2023-08-24T11:57:38;4.03;;;3.50;;
10677;SDS011;5387;48.722;9.110;2023-08-24T12:00:05;5.65;;;3.83;;
10677;SDS011;5387;48.722;9.110;2023-08-24T12:02:34;7.97;;;3.95;;
10677;SDS011;5387;48.722;9.110;2023-08-24T12:05:01;5.80;;;3.58;;
10677;SDS011;5387;48.722;9.110;2023-08-24T12:07:32;4.13;;;3.83;;
10677;SDS011;5387;48.722;9.110;2023-08-24T12:10:00;4.50;;;4.20;;
10677;SDS011;5387;48.722;9.110;2023-08-24T12:12:28;5.30;;;4.90;;
10677;SDS011;5387;48.722;9.110;2023-08-24T12:14:55;5.32;;;4.68;;
10677;SDS011;5387;48.722;9.110;2023-08-24T12:17:23;8.10;;;4.93;;
10677;SDS011;5387;48.722;9.110;2023-08-24T12:19:56;8.00;;;4.80;;
10677;SDS011;5387;48.722;9.110;2023-08-24T12:22:25;4.50;;;4.10;;
10677;SDS011;5387;48.722;9.110;2023-08-24T12:24:51;6.40;;;4.80;;
10677;SDS011;5387;48.722;9.110;2023-08-24T12:27:18;5.00;;;4.45;;
10677;SDS011;5387;48.722;9.110;2023-08-24T12:29:47;4.85;;;4.35;;
10677;SDS011;5387;48.722;9.110;2023-08-24T12:32:14;6.43;;;5.57;;
10677;SDS011;5387;48.722;9.110;2023-08-24T12:34:41;6.10;;;4.47;;
10677;SDS011;5387;48.722;9.110;2023-08-24T12:37:08;9.15;;;4.55;;
10677;SDS011;5387;48.722;9.110;2023-08-24T12:39:35;7.88;;;4.07;;
10677;SDS011;5387;48.722;9.110;2023-08-24T12:42:03;5.45;;;4.13;;
10677;SDS011;5387;48.722;9.110;2023-08-24T12:44:30;4.30;;;3.90;;
10677;SDS011;5387;48.722;9.110;2023-08-24T12:46:58;4.65;;;4.22;;
10677;SDS011;5387;48.722;9.110;2023-08-24T12:49:25;6.18;;;4.13;;
10677;SDS011;5387;48.722;9.110;2023-08-24T12:51:51;5.68;;;4.53;;
10677;SDS011;5387;48.722;9.110;2023-08-24T12:54:18;5.05;;;4.30;;
10677;SDS011;5387;48.722;9.110;2023-08-24T12:56:45;4.38;;;3.97;;
10677;SDS011;5387;48.722;9.110;2023-08-24T12:59:12;5.45;;;4.22;;
10677;SDS011;5387;48.722;9.110;2023-08-24T13:01:38;4.65;;;3.63;;
10677;SDS011;5387;48.722;9.110;2023-08-24T13:04:06;4.18;;;3.70;;
10677;SDS011;5387;48.722;9.110;2023-08-24T13:06:33;6.53;;;4.05;;
10677;SDS011;5387;48.722;9.110;2023-08-24T13:09:00;5.30;;;4.45;;
10677;SDS011;5387;48.722;9.110;2023-08-24T13:11:28;5.93;;;4.78;;
10677;SDS011;5387;48.722;9.110;2023-08-24T13:13:55;5.50;;;4.60;;
10677;SDS011;5387;48.722;9.110;2023-08-24T13:16:21;9.23;;;5.07;;
10677;SDS011;5387;48.722;9.110;2023-08-24T13:18:48;5.13;;;4.65;;
10677;SDS011;5387;48.722;9.110;2023-08-24T13:21:16;6.05;;;4.63;;
10677;SDS011;5387;48.722;9.110;2023-08-24T13:23:43;5.90;;;4.50;;
10677;SDS011;5387;48.722;9.110;2023-08-24T13:26:16;5.07;;;4.25;;
10677;SDS011;5387;48.722;9.110;2023-08-24T13:28:45;6.18;;;3.83;;
10677;SDS011;5387;48.722;9.110;2023-08-24T13:31:12;9.38;;;4.25;;
10677;SDS011;5387;48.722;9.110;2023-08-24T13:33:39;6.45;;;4.53;;
10677;SDS011;5387;48.722;9.110;2023-08-24T13:36:06;4.47;;;4.07;;
10677;SDS011;5387;48.722;9.110;2023-08-24T13:38:34;7.45;;;4.40;;
10677;SDS011;5387;48.722;9.110;2023-08-24T13:41:01;8.45;;;4.00;;
10677;SDS011;5387;48.722;9.110;2023-08-24T13:43:29;5.05;;;4.55;;
10677;SDS011;5387;48.722;9.110;2023-08-24T13:45:55;6.40;;;4.28;;
10677;SDS011;5387;48.722;9.110;2023-08-24T13:48:22;4.07;;;3.55;;
10677;SDS011;5387;48.722;9.110;2023-08-24T13:50:50;12.75;;;3.83;;
10677;SDS011;5387;48.722;9.110;2023-08-24T13:53:17;6.68;;;3.88;;
10677;SDS011;5387;48.722;9.110;2023-08-24T13:55:45;6.53;;;3.70;;
10677;SDS011;5387;48.722;9.110;2023-08-24T13:58:12;5.90;;;3.78;;
10677;SDS011;5387;48.722;9.110;2023-08-24T14:00:39;4.10;;;3.70;;
10677;SDS011;5387;48.722;9.110;2023-08-24T14:03:06;3.88;;;3.55;;
10677;SDS011;5387;48.722;9.110;2023-08-24T14:05:33;8.13;;;4.07;;
10677;SDS011;5387;48.722;9.110;2023-08-24T14:08:04;5.85;;;3.90;;
10677;SDS011;5387;48.722;9.110;2023-08-24T14:10:32;8.45;;;3.40;;
10677;SDS011;5387;48.722;9.110;2023-08-24T14:13:00;4.85;;;3.53;;
10677;SDS011;5387;48.722;9.110;2023-08-24T14:15:28;4.25;;;3.15;;
10677;SDS011;5387;48.722;9.110;2023-08-24T14:17:55;7.70;;;4.03;;
10677;SDS011;5387;48.722;9.110;2023-08-24T14:20:21;6.15;;;3.65;;
10677;SDS011;5387;48.722;9.110;2023-08-24T14:22:49;6.35;;;3.40;;
10677;SDS011;5387;48.722;9.110;2023-08-24T14:25:16;9.57;;;4.07;;
10677;SDS011;5387;48.722;9.110;2023-08-24T14:27:43;6.00;;;3.90;;
10677;SDS011;5387;48.722;9.110;2023-08-24T14:30:11;4.32;;;3.83;;
10677;SDS011;5387;48.722;9.110;2023-08-24T14:32:39;4.97;;;3.78;;
10677;SDS011;5387;48.722;9.110;2023-08-24T14:35:06;6.38;;;4.00;;
10677;SDS011;5387;48.722;9.110;2023-08-24T14:37:34;7.30;;;3.70;;
10677;SDS011;5387;48.722;9.110;2023-08-24T14:40:01;5.35;;;3.75;;
10677;SDS011;5387;48.722;9.110;2023-08-24T14:42:29;7.57;;;4.10;;
10677;SDS011;5387;48.722;9.110;2023-08-24T14:44:55;5.72;;;3.78;;
10677;SDS011;5387;48.722;9.110;2023-08-24T14:47:24;7.32;;;3.80;;
10677;SDS011;5387;48.722;9.110;2023-08-24T14:49:51;4.55;;;3.30;;
10677;SDS011;5387;48.722;9.110;2023-08-24T14:52:17;4.95;;;3.50;;
10677;SDS011;5387;48.722;9.110;2023-08-24T14:54:44;6.05;;;3.92;;
10677;SDS011;5387;48.722;9.110;2023-08-24T14:57:11;5.78;;;3.67;;
10677;SDS011;5387;48.722;9.110;2023-08-24T14:59:38;7.97;;;4.35;;
10677;SDS011;5387;48.722;9.110;2023-08-24T15:02:05;9.20;;;4.45;;
10677;SDS011;5387;48.722;9.110;2023-08-24T15:04:33;10.45;;;4.63;;
10677;SDS011;5387;48.722;9.110;2023-08-24T15:07:00;7.03;;;4.00;;